createdAt,value
2023-04-19T00:00:51.231Z,0.09
2023-04-19T00:01:51.059Z,0.09
2023-04-19T00:02:51.609Z,0.13
2023-04-19T00:03:52.155Z,0.09
2023-04-19T00:04:52.726Z,0.09
2023-04-19T00:05:02.390Z,0.13
2023-04-19T00:06:02.525Z,0.09
2023-04-19T00:07:03.036Z,0.09
2023-04-19T00:08:03.595Z,0.09
2023-04-19T00:09:04.459Z,0.09
2023-04-19T00:10:04.741Z,0.09
2023-04-19T00:11:05.343Z,0.09
2023-04-19T00:12:05.727Z,0.09
2023-04-19T00:13:06.310Z,0.09
2023-04-19T00:14:06.596Z,0.09
2023-04-19T00:15:07.079Z,0.09
2023-04-19T00:16:07.570Z,0.09
2023-04-19T00:16:17.409Z,0.09
2023-04-19T00:17:17.802Z,0.09
2023-04-19T00:18:17.762Z,0.09
2023-04-19T00:19:18.247Z,0.09
2023-04-19T00:20:19.110Z,0.09
2023-04-19T00:21:20.677Z,0.09
2023-04-19T00:22:20.091Z,0.09
2023-04-19T00:23:21.646Z,0.09
2023-04-19T00:24:21.541Z,0.09
2023-04-19T00:25:22.281Z,0.09
2023-04-19T00:26:22.492Z,0.09
2023-04-19T00:27:23.431Z,0.09
2023-04-19T00:27:32.722Z,0.09
2023-04-19T00:28:33.548Z,0.09
2023-04-19T00:29:34.154Z,0.09
2023-04-19T00:30:34.976Z,0.09
2023-04-19T00:31:35.599Z,0.09
2023-04-19T00:32:36.312Z,0.09
2023-04-19T00:33:37.151Z,0.09
2023-04-19T00:34:37.958Z,0.09
2023-04-19T00:35:38.444Z,0.09
2023-04-19T00:36:38.968Z,0.09
2023-04-19T00:37:39.788Z,0.09
2023-04-19T00:38:40.343Z,0.09
2023-04-19T00:39:40.823Z,0.09
2023-04-19T00:39:49.512Z,0.09
2023-04-19T00:40:49.878Z,0.09
2023-04-19T00:41:50.597Z,0.09
2023-04-19T00:42:50.930Z,0.09
2023-04-19T00:43:51.483Z,0.13
2023-04-19T00:44:51.985Z,0.09
2023-04-19T00:45:52.567Z,0.09
2023-04-19T00:46:53.043Z,0.09
2023-04-19T00:47:53.736Z,0.09
2023-04-19T00:48:54.247Z,0.09
2023-04-19T00:49:54.791Z,0.09
2023-04-19T00:50:55.316Z,0.09
2023-04-19T00:51:04.556Z,0.09
2023-04-19T00:52:04.853Z,0.09
2023-04-19T00:53:05.525Z,0.09
2023-04-19T00:54:06.087Z,0.09
2023-04-19T00:55:06.493Z,0.09
2023-04-19T00:56:06.558Z,0.09
2023-04-19T00:57:07.241Z,0.09
2023-04-19T00:58:07.771Z,0.09
2023-04-19T00:59:08.723Z,0.09
2023-04-19T01:00:09.197Z,0.09
2023-04-19T01:01:10.279Z,0.09
2023-04-19T01:02:11.197Z,0.09
2023-04-19T01:03:12.107Z,0.09
2023-04-19T01:03:21.716Z,0.09
2023-04-19T01:04:22.033Z,0.09
2023-04-19T01:05:22.727Z,0.09
2023-04-19T01:06:23.234Z,0.09
2023-04-19T01:07:23.719Z,0.09
2023-04-19T01:08:24.336Z,0.09
2023-04-19T01:09:24.865Z,0.09
2023-04-19T01:10:25.399Z,0.09
2023-04-19T01:11:25.977Z,0.09
2023-04-19T01:12:26.470Z,0.09
2023-04-19T01:13:27.249Z,0.09
2023-04-19T01:14:27.871Z,0.09
2023-04-19T01:14:39.073Z,0.09
2023-04-19T01:15:39.131Z,0.09
2023-04-19T01:16:40.847Z,0.09
2023-04-19T01:17:40.291Z,0.09
2023-04-19T01:18:40.774Z,0.09
2023-04-19T01:19:41.519Z,0.09
2023-04-19T01:20:42.331Z,0.09
2023-04-19T01:21:42.890Z,0.09
2023-04-19T01:22:43.371Z,0.09
2023-04-19T01:23:43.873Z,0.09
2023-04-19T01:24:44.517Z,0.09
2023-04-19T01:25:44.654Z,0.09
2023-04-19T01:26:45.252Z,0.09
2023-04-19T01:26:56.090Z,0.09
2023-04-19T01:27:56.479Z,0.09
2023-04-19T01:28:56.567Z,0.09
2023-04-19T01:29:56.877Z,0.13
2023-04-19T01:30:57.755Z,0.09
2023-04-19T01:31:57.970Z,0.09
2023-04-19T01:32:58.530Z,0.09
2023-04-19T01:33:59.080Z,0.09
2023-04-19T01:34:59.741Z,0.09
2023-04-19T01:36:00.210Z,0.09
2023-04-19T01:37:00.616Z,0.09
2023-04-19T01:38:01.084Z,0.09
2023-04-19T01:39:01.660Z,0.09
2023-04-19T01:39:10.807Z,0.09
2023-04-19T01:40:11.375Z,0.09
2023-04-19T01:41:12.324Z,0.09
2023-04-19T01:42:12.952Z,0.09
2023-04-19T01:43:13.448Z,0.09
2023-04-19T01:44:14.443Z,0.09
2023-04-19T01:45:15.521Z,0.09
2023-04-19T01:46:14.986Z,0.09
2023-04-19T01:47:15.462Z,0.09
2023-04-19T01:48:15.996Z,0.09
2023-04-19T01:49:16.052Z,0.09
2023-04-19T01:50:16.147Z,0.09
2023-04-19T01:50:26.051Z,0.09
2023-04-19T01:51:26.633Z,0.09
2023-04-19T01:52:26.800Z,0.09
2023-04-19T01:53:27.345Z,0.09
2023-04-19T01:54:27.899Z,0.09
2023-04-19T01:55:28.293Z,0.09
2023-04-19T01:56:28.991Z,0.09
2023-04-19T01:57:29.541Z,0.09
2023-04-19T01:58:29.968Z,0.09
2023-04-19T01:59:30.422Z,0.09
2023-04-19T02:00:30.768Z,0.09
2023-04-19T02:01:31.635Z,0.09
2023-04-19T02:01:40.469Z,0.09
2023-04-19T02:02:41.069Z,0.09
2023-04-19T02:03:42.152Z,0.09
2023-04-19T02:04:42.468Z,0.09
2023-04-19T02:05:42.585Z,0.09
2023-04-19T02:06:42.659Z,0.09
2023-04-19T02:07:42.608Z,0.09
2023-04-19T02:08:43.179Z,0.09
2023-04-19T02:09:43.714Z,0.09
2023-04-19T02:10:44.266Z,0.09
2023-04-19T02:11:44.296Z,0.09
2023-04-19T02:12:45.038Z,0.09
2023-04-19T02:13:45.600Z,0.09
2023-04-19T02:13:55.004Z,0.09
2023-04-19T02:14:55.437Z,0.09
2023-04-19T02:15:56.273Z,0.09
2023-04-19T02:16:56.870Z,0.09
2023-04-19T02:17:57.314Z,0.09
2023-04-19T02:18:58.158Z,0.09
2023-04-19T02:19:58.379Z,0.09
2023-04-19T02:20:58.779Z,0.09
2023-04-19T02:21:59.689Z,0.09
2023-04-19T02:23:00.173Z,0.09
2023-04-19T02:24:01.128Z,0.09
2023-04-19T02:25:01.758Z,0.09
2023-04-19T02:25:10.440Z,0.09
2023-04-19T02:26:10.885Z,0.09
2023-04-19T02:27:11.390Z,0.09
2023-04-19T02:28:12.275Z,0.09
2023-04-19T02:29:13.254Z,0.09
2023-04-19T02:30:13.808Z,0.13
2023-04-19T02:31:14.260Z,0.09
2023-04-19T02:32:14.798Z,0.09
2023-04-19T02:33:15.109Z,0.06
2023-04-19T02:34:16.337Z,0.09
2023-04-19T02:35:16.408Z,0.09
2023-04-19T02:36:16.869Z,0.09
2023-04-19T02:36:25.608Z,0.09
2023-04-19T02:37:26.401Z,0.09
2023-04-19T02:38:26.829Z,0.09
2023-04-19T02:39:27.374Z,0.09
2023-04-19T02:40:28.249Z,0.09
2023-04-19T02:41:29.223Z,0.09
2023-04-19T02:42:29.779Z,0.09
2023-04-19T02:43:30.609Z,0.09
2023-04-19T02:44:31.278Z,0.09
2023-04-19T02:45:31.929Z,0.09
2023-04-19T02:46:32.644Z,0.09
2023-04-19T02:47:33.074Z,0.09
2023-04-19T02:47:45.938Z,0.09
2023-04-19T02:48:46.141Z,0.09
2023-04-19T02:49:46.556Z,0.09
2023-04-19T02:50:47.012Z,0.09
2023-04-19T02:51:47.477Z,0.09
2023-04-19T02:52:47.854Z,0.09
2023-04-19T02:53:47.879Z,0.09
2023-04-19T02:54:48.382Z,0.09
2023-04-19T02:55:49.742Z,0.09
2023-04-19T02:56:48.714Z,0.09
2023-04-19T02:57:49.573Z,0.09
2023-04-19T02:58:50.060Z,0.09
2023-04-19T02:59:50.589Z,0.09
2023-04-19T03:00:51.093Z,0.09
2023-04-19T03:01:01.317Z,0.09
2023-04-19T03:02:01.732Z,0.09
2023-04-19T03:03:02.767Z,0.09
2023-04-19T03:04:03.094Z,0.09
2023-04-19T03:05:03.796Z,0.09
2023-04-19T03:06:04.359Z,0.09
2023-04-19T03:07:04.877Z,0.09
2023-04-19T03:08:05.260Z,0.09
2023-04-19T03:09:05.652Z,0.09
2023-04-19T03:10:07.302Z,0.09
2023-04-19T03:11:06.798Z,0.09
2023-04-19T03:12:07.235Z,0.09
2023-04-19T03:12:16.438Z,0.09
2023-04-19T03:13:16.864Z,0.09
2023-04-19T03:14:17.443Z,0.09
2023-04-19T03:15:17.861Z,0.09
2023-04-19T03:16:18.331Z,0.09
2023-04-19T03:17:18.906Z,0.09
2023-04-19T03:18:19.326Z,0.09
2023-04-19T03:19:19.859Z,0.09
2023-04-19T03:20:20.804Z,0.09
2023-04-19T03:21:20.878Z,0.09
2023-04-19T03:22:21.292Z,0.13
2023-04-19T03:23:21.848Z,0.09
2023-04-19T03:24:22.191Z,0.09
2023-04-19T03:24:30.871Z,0.09
2023-04-19T03:25:31.327Z,0.09
2023-04-19T03:26:31.687Z,0.13
2023-04-19T03:27:32.303Z,0.09
2023-04-19T03:28:32.801Z,0.09
2023-04-19T03:29:32.969Z,0.09
2023-04-19T03:30:33.741Z,0.09
2023-04-19T03:31:34.138Z,0.09
2023-04-19T03:32:34.390Z,0.09
2023-04-19T03:33:34.914Z,0.09
2023-04-19T03:34:35.356Z,0.09
2023-04-19T03:35:36.200Z,0.09
2023-04-19T03:35:49.354Z,0.09
2023-04-19T03:36:49.052Z,0.09
2023-04-19T03:37:49.670Z,0.09
2023-04-19T03:38:50.216Z,0.13
2023-04-19T03:39:50.656Z,0.09
2023-04-19T03:40:50.715Z,0.09
2023-04-19T03:41:51.109Z,0.09
2023-04-19T03:42:53.974Z,0.09
2023-04-19T03:43:52.192Z,0.09
2023-04-19T03:44:52.592Z,0.09
2023-04-19T03:45:53.105Z,0.13
2023-04-19T03:46:53.897Z,0.13
2023-04-19T03:47:05.650Z,0.13
2023-04-19T03:48:06.291Z,0.09
2023-04-19T03:49:06.716Z,0.09
2023-04-19T03:50:07.600Z,0.09
2023-04-19T03:51:08.153Z,0.09
2023-04-19T03:52:08.905Z,0.13
2023-04-19T03:53:09.397Z,0.09
2023-04-19T03:54:10.380Z,0.13
2023-04-19T03:55:10.405Z,0.13
2023-04-19T03:56:10.664Z,0.13
2023-04-19T03:57:11.085Z,0.13
2023-04-19T03:58:11.638Z,0.13
2023-04-19T03:58:20.782Z,0.13
2023-04-19T03:59:21.210Z,0.13
2023-04-19T04:00:21.932Z,0.13
2023-04-19T04:01:22.201Z,0.09
2023-04-19T04:02:22.770Z,0.13
2023-04-19T04:03:23.238Z,0.13
2023-04-19T04:04:23.635Z,0.13
2023-04-19T04:05:24.043Z,0.13
2023-04-19T04:06:24.460Z,0.16
2023-04-19T04:07:25.046Z,0.16
2023-04-19T04:08:25.525Z,0.13
2023-04-19T04:09:26.031Z,0.13
2023-04-19T04:09:34.812Z,0.13
2023-04-19T04:10:35.625Z,0.13
2023-04-19T04:11:36.124Z,0.13
2023-04-19T04:12:36.690Z,0.13
2023-04-19T04:13:37.193Z,0.13
2023-04-19T04:14:38.009Z,0.13
2023-04-19T04:15:38.002Z,0.13
2023-04-19T04:16:38.493Z,0.13
2023-04-19T04:17:38.843Z,0.13
2023-04-19T04:18:39.170Z,0.13
2023-04-19T04:19:39.266Z,0.13
2023-04-19T04:20:39.828Z,0.13
2023-04-19T04:20:52.581Z,0.13
2023-04-19T04:21:52.970Z,0.13
2023-04-19T04:22:53.377Z,0.13
2023-04-19T04:23:54.180Z,0.13
2023-04-19T04:24:54.420Z,0.13
2023-04-19T04:25:55.254Z,0.13
2023-04-19T04:26:55.590Z,0.13
2023-04-19T04:27:56.106Z,0.13
2023-04-19T04:28:56.503Z,0.13
2023-04-19T04:29:56.982Z,0.13
2023-04-19T04:30:57.654Z,0.13
2023-04-19T04:31:58.107Z,0.16
2023-04-19T04:32:07.441Z,0.13
2023-04-19T04:33:07.983Z,0.16
2023-04-19T04:34:08.211Z,0.13
2023-04-19T04:35:08.808Z,0.13
2023-04-19T04:36:09.920Z,0.16
2023-04-19T04:37:09.773Z,0.16
2023-04-19T04:38:21.387Z,0.16
2023-04-19T04:39:10.948Z,0.13
2023-04-19T04:40:11.442Z,0.16
2023-04-19T04:41:11.858Z,0.13
2023-04-19T04:42:12.082Z,0.13
2023-04-19T04:43:13.061Z,0.16
2023-04-19T04:44:14.026Z,0.16
2023-04-19T04:44:25.067Z,0.16
2023-04-19T04:45:25.257Z,0.16
2023-04-19T04:46:25.736Z,0.16
2023-04-19T04:47:26.350Z,0.16
2023-04-19T04:48:26.990Z,0.16
2023-04-19T04:49:28.143Z,0.13
2023-04-19T04:50:28.770Z,0.16
2023-04-19T04:51:29.682Z,0.16
2023-04-19T04:52:30.269Z,0.16
2023-04-19T04:53:31.263Z,0.16
2023-04-19T04:54:32.240Z,0.16
2023-04-19T04:55:32.792Z,0.16
2023-04-19T04:55:42.214Z,0.16
2023-04-19T04:56:45.137Z,0.16
2023-04-19T04:57:43.341Z,0.16
2023-04-19T04:58:43.783Z,0.16
2023-04-19T04:59:43.874Z,0.16
2023-04-19T05:00:44.622Z,0.16
2023-04-19T05:01:45.042Z,0.16
2023-04-19T05:02:45.569Z,0.16
2023-04-19T05:03:46.011Z,0.16
2023-04-19T05:04:46.544Z,0.23
2023-04-19T05:05:47.008Z,0.23
2023-04-19T05:06:47.883Z,0.23
2023-04-19T05:06:58.006Z,0.23
2023-04-19T05:07:58.479Z,0.23
2023-04-19T05:08:59.434Z,0.23
2023-04-19T05:10:00.337Z,0.23
2023-04-19T05:11:00.846Z,0.23
2023-04-19T05:12:01.257Z,0.23
2023-04-19T05:13:02.210Z,0.23
2023-04-19T05:14:02.706Z,0.23
2023-04-19T05:15:03.226Z,0.23
2023-04-19T05:16:03.234Z,0.23
2023-04-19T05:17:04.774Z,0.23
2023-04-19T05:18:04.192Z,0.23
2023-04-19T05:19:04.486Z,0.16
2023-04-19T05:19:13.297Z,0.23
2023-04-19T05:20:13.755Z,0.16
2023-04-19T05:21:14.262Z,0.16
2023-04-19T05:22:14.446Z,0.23
2023-04-19T05:23:14.952Z,0.16
2023-04-19T05:24:15.802Z,0.16
2023-04-19T05:25:16.343Z,0.16
2023-04-19T05:26:16.713Z,0.16
2023-04-19T05:27:17.129Z,0.23
2023-04-19T05:28:17.907Z,0.23
2023-04-19T05:29:18.697Z,0.27
2023-04-19T05:29:30.339Z,0.23
2023-04-19T05:30:30.727Z,0.27
2023-04-19T05:31:31.324Z,0.27
2023-04-19T05:32:31.758Z,0.27
2023-04-19T05:33:32.109Z,0.23
2023-04-19T05:34:32.441Z,0.27
2023-04-19T05:35:32.706Z,0.27
2023-04-19T05:36:32.685Z,0.27
2023-04-19T05:37:33.666Z,0.27
2023-04-19T05:38:34.235Z,0.27
2023-04-19T05:39:34.963Z,0.27
2023-04-19T05:40:35.449Z,0.27
2023-04-19T05:41:35.874Z,0.27
2023-04-19T05:42:36.837Z,0.27
2023-04-19T05:42:45.526Z,0.27
2023-04-19T05:43:45.916Z,0.27
2023-04-19T05:44:46.207Z,0.27
2023-04-19T05:45:46.691Z,0.27
2023-04-19T05:46:47.113Z,0.27
2023-04-19T05:47:47.647Z,0.27
2023-04-19T05:48:48.486Z,0.27
2023-04-19T05:49:48.976Z,0.27
2023-04-19T05:50:49.563Z,0.27
2023-04-19T05:51:49.357Z,0.27
2023-04-19T05:52:49.485Z,0.27
2023-04-19T05:53:50.406Z,0.27
2023-04-19T05:53:59.634Z,0.27
2023-04-19T05:55:00.488Z,0.27
2023-04-19T05:56:00.991Z,0.27
2023-04-19T05:57:01.406Z,0.27
2023-04-19T05:58:01.808Z,0.27
2023-04-19T05:59:02.373Z,0.27
2023-04-19T06:00:03.285Z,0.27
2023-04-19T06:01:03.589Z,0.27
2023-04-19T06:02:04.291Z,0.27
2023-04-19T06:03:04.776Z,0.27
2023-04-19T06:04:05.394Z,0.27
2023-04-19T06:05:10.010Z,0.27
2023-04-19T06:06:06.013Z,0.27
2023-04-19T06:07:13.554Z,0.27
2023-04-19T06:07:30.150Z,0.27
2023-04-19T06:08:17.460Z,0.27
2023-04-19T06:09:17.927Z,0.27
2023-04-19T06:10:18.898Z,0.27
2023-04-19T06:11:26.445Z,0.27
2023-04-19T06:12:19.515Z,0.27
2023-04-19T06:13:19.924Z,0.27
2023-04-19T06:14:20.363Z,0.27
2023-04-19T06:15:21.306Z,0.27
2023-04-19T06:16:22.057Z,0.27
2023-04-19T06:17:22.866Z,0.27
2023-04-19T06:18:23.071Z,0.27
2023-04-19T06:19:23.608Z,0.27
2023-04-19T06:20:24.030Z,0.27
2023-04-19T06:20:33.214Z,0.27
2023-04-19T06:21:34.155Z,0.27
2023-04-19T06:22:34.527Z,0.27
2023-04-19T06:23:34.819Z,0.27
2023-04-19T06:24:35.504Z,0.31
2023-04-19T06:25:35.505Z,0.31
2023-04-19T06:26:35.987Z,0.31
2023-04-19T06:27:36.215Z,0.31
2023-04-19T06:28:36.766Z,0.31
2023-04-19T06:29:37.154Z,0.27
2023-04-19T06:30:37.365Z,0.31
2023-04-19T06:31:38.418Z,0.34
2023-04-19T06:32:38.427Z,0.34
2023-04-19T06:32:51.816Z,0.34
2023-04-19T06:33:52.246Z,0.38
2023-04-19T06:34:52.528Z,0.34
2023-04-19T06:35:53.115Z,0.34
2023-04-19T06:36:54.082Z,0.34
2023-04-19T06:37:54.616Z,0.34
2023-04-19T06:38:55.401Z,0.31
2023-04-19T06:39:56.052Z,0.34
2023-04-19T06:40:56.186Z,0.34
2023-04-19T06:41:56.642Z,0.31
2023-04-19T06:42:57.217Z,0.31
2023-04-19T06:43:57.833Z,0.31
2023-04-19T06:44:58.395Z,0.34
2023-04-19T06:45:09.575Z,0.31
2023-04-19T06:46:10.262Z,0.34
2023-04-19T06:47:10.871Z,0.34
2023-04-19T06:48:11.777Z,0.34
2023-04-19T06:49:12.210Z,0.34
2023-04-19T06:50:12.933Z,0.34
2023-04-19T06:51:13.340Z,0.38
2023-04-19T06:52:14.370Z,0.38
2023-04-19T06:53:14.033Z,0.38
2023-04-19T06:54:14.295Z,0.38
2023-04-19T06:55:14.628Z,0.41
2023-04-19T06:56:15.000Z,0.38
2023-04-19T06:57:15.363Z,0.38
2023-04-19T06:58:15.989Z,0.38
2023-04-19T06:58:27.679Z,0.34
2023-04-19T06:59:28.313Z,0.38
2023-04-19T07:00:29.003Z,0.41
2023-04-19T07:01:29.492Z,0.38
2023-04-19T07:02:29.996Z,0.41
2023-04-19T07:03:30.410Z,0.41
2023-04-19T07:04:30.820Z,0.41
2023-04-19T07:05:30.590Z,0.38
2023-04-19T07:06:31.228Z,0.41
2023-04-19T07:07:31.268Z,0.48
2023-04-19T07:08:46.468Z,0.45
2023-04-19T07:09:33.076Z,0.45
2023-04-19T07:09:42.768Z,0.41
2023-04-19T07:10:42.945Z,0.38
2023-04-19T07:11:43.835Z,0.41
2023-04-19T07:12:44.252Z,0.45
2023-04-19T07:13:44.271Z,0.41
2023-04-19T07:14:44.415Z,0.41
2023-04-19T07:15:44.965Z,0.41
2023-04-19T07:16:45.887Z,0.41
2023-04-19T07:17:45.843Z,0.41
2023-04-19T07:18:46.688Z,0.41
2023-04-19T07:19:47.394Z,0.41
2023-04-19T07:20:47.922Z,0.41
2023-04-19T07:21:48.888Z,0.41
2023-04-19T07:22:49.579Z,0.41
2023-04-19T07:23:50.361Z,0.45
2023-04-19T07:24:50.911Z,0.45
2023-04-19T07:25:02.199Z,0.45
2023-04-19T07:26:02.398Z,0.48
2023-04-19T07:27:03.202Z,0.45
2023-04-19T07:28:03.548Z,0.52
2023-04-19T07:29:04.149Z,0.45
2023-04-19T07:30:05.039Z,0.55
2023-04-19T07:31:05.973Z,0.48
2023-04-19T07:32:06.147Z,0.55
2023-04-19T07:33:07.067Z,0.52
2023-04-19T07:34:07.341Z,0.59
2023-04-19T07:35:07.425Z,0.52
2023-04-19T07:36:07.656Z,0.55
2023-04-19T07:37:08.520Z,0.52
2023-04-19T07:38:10.008Z,0.55
2023-04-19T07:39:09.600Z,0.59
2023-04-19T07:39:18.318Z,0.66
2023-04-19T07:40:19.017Z,0.66
2023-04-19T07:41:19.594Z,0.66
2023-04-19T07:42:20.291Z,0.66
2023-04-19T07:43:20.283Z,0.66
2023-04-19T07:44:20.953Z,0.59
2023-04-19T07:45:21.407Z,0.55
2023-04-19T07:46:22.026Z,0.59
2023-04-19T07:47:22.196Z,0.55
2023-04-19T07:48:22.628Z,0.48
2023-04-19T07:49:22.722Z,0.48
2023-04-19T07:50:23.384Z,0.45
2023-04-19T07:51:24.183Z,0.45
2023-04-19T07:51:33.406Z,0.45
2023-04-19T07:52:34.013Z,0.45
2023-04-19T07:53:34.827Z,0.45
2023-04-19T07:54:35.157Z,0.45
2023-04-19T07:55:35.152Z,0.45
2023-04-19T07:56:36.072Z,0.45
2023-04-19T07:57:36.290Z,0.41
2023-04-19T07:59:06.882Z,0.48
2023-04-19T07:59:57.022Z,0.41
2023-04-19T08:00:57.870Z,0.52
2023-04-19T08:01:58.227Z,0.59
2023-04-19T08:02:58.947Z,0.66
2023-04-19T08:03:59.091Z,0.66
2023-04-19T08:04:08.410Z,0.66
2023-04-19T08:05:08.329Z,0.66
2023-04-19T08:06:09.096Z,0.66
2023-04-19T08:07:09.497Z,0.66
2023-04-19T08:08:09.754Z,0.66
2023-04-19T08:09:10.328Z,0.66
2023-04-19T08:10:10.654Z,0.66
2023-04-19T08:11:11.466Z,0.66
2023-04-19T08:12:17.179Z,0.66
2023-04-19T08:13:12.468Z,0.70
2023-04-19T08:14:25.959Z,0.70
2023-04-19T08:15:29.169Z,0.70
2023-04-19T08:16:41.864Z,0.70
2023-04-19T08:17:05.869Z,0.70
2023-04-19T08:17:27.973Z,0.66
2023-04-19T08:18:24.086Z,0.66
2023-04-19T08:19:24.628Z,0.66
2023-04-19T08:20:25.114Z,0.59
2023-04-19T08:21:31.345Z,0.59
2023-04-19T08:22:26.374Z,0.59
2023-04-19T08:23:34.726Z,0.70
2023-04-19T08:24:27.286Z,0.66
2023-04-19T08:25:27.435Z,0.70
2023-04-19T08:26:28.034Z,0.73
2023-04-19T08:27:28.386Z,0.77
2023-04-19T08:28:28.850Z,0.80
2023-04-19T08:29:29.720Z,0.84
2023-04-19T08:29:41.979Z,0.84
2023-04-19T08:30:42.170Z,0.88
2023-04-19T08:31:42.618Z,0.84
2023-04-19T08:32:43.072Z,0.88
2023-04-19T08:33:44.471Z,0.91
2023-04-19T08:34:43.580Z,1.02
2023-04-19T08:35:44.134Z,1.23
2023-04-19T08:36:51.823Z,1.59
2023-04-19T08:37:44.893Z,1.41
2023-04-19T08:38:49.218Z,1.41
2023-04-19T08:39:47.082Z,1.62
2023-04-19T08:40:46.484Z,1.59
2023-04-19T08:41:52.878Z,1.44
2023-04-19T08:42:06.960Z,1.41
2023-04-19T08:42:58.734Z,1.66
2023-04-19T08:43:59.478Z,1.62
2023-04-19T08:46:00.815Z,1.66
2023-04-19T08:47:02.238Z,1.62
2023-04-19T08:48:02.366Z,1.66
2023-04-19T08:49:02.154Z,1.69
2023-04-19T08:51:05.443Z,1.73
2023-04-19T08:52:03.504Z,1.77
2023-04-19T08:53:16.208Z,1.62
2023-04-19T08:54:13.526Z,1.69
2023-04-19T08:55:14.061Z,1.80
2023-04-19T08:56:21.001Z,1.77
2023-04-19T08:57:15.137Z,1.80
2023-04-19T08:58:28.451Z,1.77
2023-04-19T08:59:18.585Z,1.80
2023-04-19T09:00:17.076Z,1.77
2023-04-19T09:01:33.094Z,1.69
2023-04-19T09:02:18.084Z,1.44
2023-04-19T09:03:18.959Z,1.37
2023-04-19T09:04:34.693Z,1.02
2023-04-19T09:05:28.149Z,0.91
2023-04-19T09:06:29.209Z,1.27
2023-04-19T09:07:29.284Z,0.98
2023-04-19T09:08:30.155Z,1.66
2023-04-19T09:10:31.629Z,1.52
2023-04-19T09:11:31.091Z,1.16
2023-04-19T09:12:31.526Z,1.37
2023-04-19T09:13:32.444Z,1.44
2023-04-19T09:14:33.894Z,1.59
2023-04-19T09:15:33.855Z,1.02
2023-04-19T09:15:53.668Z,1.12
2023-04-19T09:16:52.615Z,0.95
2023-04-19T09:17:53.430Z,0.88
2023-04-19T09:19:02.416Z,0.84
2023-04-19T09:19:54.949Z,0.91
2023-04-19T09:20:55.828Z,0.98
2023-04-19T09:21:56.591Z,1.37
2023-04-19T09:22:57.174Z,1.23
2023-04-19T09:23:57.753Z,1.09
2023-04-19T09:26:22.320Z,1.09
2023-04-19T09:26:59.838Z,1.20
2023-04-19T09:27:08.674Z,1.02
2023-04-19T09:28:09.153Z,1.30
2023-04-19T09:29:09.294Z,1.16
2023-04-19T09:30:17.602Z,1.16
2023-04-19T09:31:24.112Z,0.95
2023-04-19T09:32:11.688Z,0.95
2023-04-19T09:33:12.253Z,0.84
2023-04-19T09:34:12.952Z,0.88
2023-04-19T09:35:13.523Z,0.80
2023-04-19T09:36:14.772Z,0.77
2023-04-19T09:37:21.413Z,0.73
2023-04-19T09:38:15.680Z,0.66
2023-04-19T09:38:24.917Z,0.73
2023-04-19T09:39:25.831Z,0.59
2023-04-19T09:40:26.668Z,0.70
2023-04-19T09:41:26.880Z,0.80
2023-04-19T09:42:47.353Z,0.70
2023-04-19T09:45:01.790Z,0.77
2023-04-19T09:45:30.488Z,0.84
2023-04-19T09:46:28.828Z,0.80
2023-04-19T09:47:29.308Z,0.84
2023-04-19T09:48:29.680Z,0.84
2023-04-19T09:49:41.681Z,0.84
2023-04-19T09:50:31.808Z,0.95
2023-04-19T09:51:30.361Z,0.88
2023-04-19T09:51:40.034Z,0.91
2023-04-19T09:52:40.265Z,0.98
2023-04-19T09:53:40.617Z,0.95
2023-04-19T09:54:41.570Z,0.95
2023-04-19T09:55:57.245Z,0.95
2023-04-19T09:56:42.561Z,0.91
2023-04-19T09:57:44.302Z,0.88
2023-04-19T09:58:51.018Z,0.84
2023-04-19T09:59:44.292Z,0.84
2023-04-19T10:00:50.092Z,0.88
2023-04-19T10:01:45.208Z,0.91
2023-04-19T10:02:45.831Z,1.23
2023-04-19T10:02:54.638Z,1.23
2023-04-19T10:03:55.891Z,1.12
2023-04-19T10:05:11.203Z,2.05
2023-04-19T10:05:57.320Z,2.30
2023-04-19T10:07:19.374Z,2.05
2023-04-19T10:07:59.628Z,1.09
2023-04-19T10:08:57.668Z,1.02
2023-04-19T10:10:02.382Z,1.02
2023-04-19T10:10:59.266Z,1.09
2023-04-19T10:12:06.605Z,1.12
2023-04-19T10:13:16.047Z,2.44
2023-04-19T10:14:00.141Z,2.37
2023-04-19T10:15:00.696Z,1.27
2023-04-19T10:15:09.400Z,1.37
2023-04-19T10:16:18.956Z,0.95
2023-04-19T10:17:10.128Z,1.02
2023-04-19T10:18:10.757Z,0.98
2023-04-19T10:19:10.921Z,0.91
2023-04-19T10:20:11.507Z,1.02
2023-04-19T10:21:11.839Z,1.12
2023-04-19T10:22:12.674Z,1.02
2023-04-19T10:23:13.146Z,0.95
2023-04-19T10:24:14.020Z,0.91
2023-04-19T10:25:14.732Z,0.91
2023-04-19T10:26:15.093Z,0.80
2023-04-19T10:27:16.026Z,0.80
2023-04-19T10:28:16.605Z,0.91
2023-04-19T10:29:17.318Z,1.02
2023-04-19T10:29:28.035Z,0.95
2023-04-19T10:30:28.171Z,0.84
2023-04-19T10:31:28.301Z,0.95
2023-04-19T10:32:28.899Z,0.91
2023-04-19T10:33:29.377Z,1.59
2023-04-19T10:34:29.942Z,1.12
2023-04-19T10:35:30.221Z,2.12
2023-04-19T10:36:30.483Z,1.73
2023-04-19T10:37:31.365Z,1.12
2023-04-19T10:38:31.888Z,1.09
2023-04-19T10:39:32.350Z,1.94
2023-04-19T10:40:32.469Z,1.52
2023-04-19T10:41:33.201Z,1.12
2023-04-19T10:41:42.891Z,1.12
2023-04-19T10:42:43.707Z,1.23
2023-04-19T10:43:44.213Z,1.23
2023-04-19T10:44:44.641Z,2.41
2023-04-19T10:45:45.184Z,2.30
2023-04-19T10:46:45.666Z,1.62
2023-04-19T10:47:46.579Z,2.12
2023-04-19T10:49:16.175Z,2.19
2023-04-19T10:50:15.771Z,2.37
2023-04-19T10:51:16.745Z,1.87
2023-04-19T10:52:17.499Z,2.30
2023-04-19T10:53:18.163Z,2.41
2023-04-19T10:54:18.436Z,1.62
2023-04-19T10:55:19.363Z,1.09
2023-04-19T10:56:20.232Z,1.44
2023-04-19T10:57:20.730Z,2.48
2023-04-19T10:58:21.805Z,1.16
2023-04-19T10:59:22.494Z,1.09
2023-04-19T10:59:32.139Z,1.02
2023-04-19T11:00:32.726Z,1.30
2023-04-19T11:01:33.261Z,1.41
2023-04-19T11:02:34.000Z,2.44
2023-04-19T11:03:34.136Z,1.12
2023-04-19T11:04:34.704Z,1.52
2023-04-19T11:05:34.693Z,1.20
2023-04-19T11:06:35.414Z,1.12
2023-04-19T11:07:35.412Z,1.09
2023-04-19T11:08:35.797Z,1.12
2023-04-19T11:09:36.274Z,2.30
2023-04-19T11:10:37.173Z,2.09
2023-04-19T11:11:37.706Z,1.98
2023-04-19T11:11:50.729Z,1.84
2023-04-19T11:12:50.605Z,1.62
2023-04-19T11:13:51.598Z,2.12
2023-04-19T11:14:52.543Z,1.12
2023-04-19T11:15:53.145Z,1.20
2023-04-19T11:16:53.328Z,1.37
2023-04-19T11:18:08.906Z,2.16
2023-04-19T11:18:53.768Z,2.41
2023-04-19T11:19:54.233Z,2.44
2023-04-19T11:20:54.768Z,2.44
2023-04-19T11:21:55.285Z,2.12
2023-04-19T11:22:55.793Z,2.09
2023-04-19T11:23:56.445Z,2.09
2023-04-19T11:24:07.349Z,2.09
2023-04-19T11:25:07.785Z,1.77
2023-04-19T11:26:08.090Z,1.69
2023-04-19T11:27:08.572Z,1.62
2023-04-19T11:28:09.006Z,1.80
2023-04-19T11:29:09.751Z,1.66
2023-04-19T11:30:10.541Z,1.80
2023-04-19T11:31:10.523Z,1.73
2023-04-19T11:32:10.905Z,1.77
2023-04-19T11:33:11.544Z,2.19
2023-04-19T11:34:12.072Z,2.41
2023-04-19T11:35:12.745Z,2.37
2023-04-19T11:35:22.741Z,2.19
2023-04-19T11:36:22.802Z,2.16
2023-04-19T11:37:23.385Z,2.16
2023-04-19T11:38:23.980Z,1.94
2023-04-19T11:39:24.665Z,1.77
2023-04-19T11:40:25.183Z,1.80
2023-04-19T11:41:25.648Z,1.77
2023-04-19T11:42:26.231Z,1.94
2023-04-19T11:43:26.651Z,2.01
2023-04-19T11:44:27.118Z,1.73
2023-04-19T11:45:29.759Z,1.73
2023-04-19T11:45:42.865Z,1.77
2023-04-19T11:46:43.333Z,1.69
2023-04-19T11:47:43.531Z,1.77
2023-04-19T11:48:44.444Z,1.69
2023-04-19T11:49:44.983Z,1.80
2023-04-19T11:50:45.099Z,1.98
2023-04-19T11:51:45.125Z,1.94
2023-04-19T11:52:45.737Z,1.80
2023-04-19T11:53:46.247Z,1.77
2023-04-19T11:54:46.629Z,1.55
2023-04-19T11:55:47.676Z,1.69
2023-04-19T11:56:47.785Z,1.69
2023-04-19T11:56:56.963Z,1.69
2023-04-19T11:57:57.578Z,1.62
2023-04-19T11:58:58.189Z,1.55
2023-04-19T11:59:58.593Z,1.69
2023-04-19T12:00:59.156Z,1.66
2023-04-19T12:01:59.625Z,1.62
2023-04-19T12:03:00.304Z,1.73
2023-04-19T12:04:00.709Z,1.73
2023-04-19T12:05:00.769Z,1.55
2023-04-19T12:06:01.727Z,1.77
2023-04-19T12:07:02.054Z,1.87
2023-04-19T12:08:02.644Z,1.77
2023-04-19T12:09:02.799Z,1.66
2023-04-19T12:09:11.434Z,1.69
2023-04-19T12:10:11.945Z,1.59
2023-04-19T12:11:12.372Z,1.62
2023-04-19T12:12:13.003Z,1.69
2023-04-19T12:13:13.562Z,1.66
2023-04-19T12:14:14.869Z,1.73
2023-04-19T12:15:14.753Z,1.66
2023-04-19T12:16:15.363Z,1.84
2023-04-19T12:17:15.729Z,1.94
2023-04-19T12:18:16.607Z,1.98
2023-04-19T12:19:18.061Z,1.77
2023-04-19T12:20:17.905Z,1.77
2023-04-19T12:21:18.825Z,1.73
2023-04-19T12:21:27.489Z,1.66
2023-04-19T12:22:27.966Z,1.69
2023-04-19T12:23:28.455Z,1.77
2023-04-19T12:24:28.901Z,1.44
2023-04-19T12:25:29.622Z,1.84
2023-04-19T12:26:30.271Z,2.19
2023-04-19T12:27:30.982Z,2.16
2023-04-19T12:28:31.968Z,2.09
2023-04-19T12:29:32.320Z,1.41
2023-04-19T12:30:32.852Z,1.77
2023-04-19T12:31:33.692Z,1.30
2023-04-19T12:32:34.277Z,1.62
2023-04-19T12:33:34.781Z,1.66
2023-04-19T12:34:35.233Z,1.66
2023-04-19T12:35:35.793Z,1.62
2023-04-19T12:35:44.854Z,1.73
2023-04-19T12:36:45.438Z,1.59
2023-04-19T12:37:45.940Z,1.52
2023-04-19T12:38:46.515Z,1.34
2023-04-19T12:39:47.443Z,1.41
2023-04-19T12:40:48.012Z,1.69